sensor_id;sensor_type;location;lat;lon;timestamp;P1;durP1;ratioP1;P2;durP2;ratioP2
56039;SDS011;43937;41.366;2.072;2023-03-31T00:08:52;12.43;;;5.25;;
56039;SDS011;43937;41.366;2.072;2023-03-31T00:13:57;5.40;;;3.53;;
56039;SDS011;43937;41.366;2.072;2023-03-31T00:16:22;13.23;;;5.93;;
56039;SDS011;43937;41.366;2.072;2023-03-31T00:19:35;30.52;;;15.00;;
56039;SDS011;43937;41.366;2.072;2023-03-31T00:25:53;17.13;;;3.72;;
56039;SDS011;43937;41.366;2.072;2023-03-31T00:30:06;6.45;;;3.35;;
56039;SDS011;43937;41.366;2.072;2023-03-31T00:39:50;8.75;;;3.55;;
56039;SDS011;43937;41.366;2.072;2023-03-31T00:44:16;8.18;;;4.40;;
56039;SDS011;43937;41.366;2.072;2023-03-31T00:49:36;4.38;;;2.65;;
56039;SDS011;43937;41.366;2.072;2023-03-31T00:52:06;3.38;;;2.70;;
56039;SDS011;43937;41.366;2.072;2023-03-31T00:57:43;4.82;;;2.83;;
56039;SDS011;43937;41.366;2.072;2023-03-31T01:00:11;4.55;;;2.75;;
56039;SDS011;43937;41.366;2.072;2023-03-31T01:02:41;3.47;;;2.47;;
56039;SDS011;43937;41.366;2.072;2023-03-31T01:05:16;7.97;;;3.42;;
56039;SDS011;43937;41.366;2.072;2023-03-31T01:09:36;5.40;;;3.40;;
56039;SDS011;43937;41.366;2.072;2023-03-31T01:14:16;7.10;;;3.63;;
56039;SDS011;43937;41.366;2.072;2023-03-31T01:18:25;5.85;;;3.17;;
56039;SDS011;43937;41.366;2.072;2023-03-31T01:41:08;12.95;;;4.07;;
56039;SDS011;43937;41.366;2.072;2023-03-31T01:48:06;8.02;;;3.28;;
56039;SDS011;43937;41.366;2.072;2023-03-31T01:51:56;14.02;;;4.47;;
56039;SDS011;43937;41.366;2.072;2023-03-31T01:55:28;15.38;;;4.15;;
56039;SDS011;43937;41.366;2.072;2023-03-31T02:02:29;5.78;;;3.85;;
56039;SDS011;43937;41.366;2.072;2023-03-31T02:07:49;15.57;;;5.25;;
56039;SDS011;43937;41.366;2.072;2023-03-31T02:10:19;16.38;;;5.38;;
56039;SDS011;43937;41.366;2.072;2023-03-31T02:12:47;6.15;;;3.65;;
56039;SDS011;43937;41.366;2.072;2023-03-31T02:27:52;10.88;;;5.85;;
56039;SDS011;43937;41.366;2.072;2023-03-31T02:30:25;10.82;;;5.72;;
56039;SDS011;43937;41.366;2.072;2023-03-31T02:33:38;15.88;;;7.70;;
56039;SDS011;43937;41.366;2.072;2023-03-31T02:36:04;7.85;;;6.00;;
56039;SDS011;43937;41.366;2.072;2023-03-31T02:39:33;11.80;;;6.88;;
56039;SDS011;43937;41.366;2.072;2023-03-31T02:42:01;16.77;;;6.70;;
56039;SDS011;43937;41.366;2.072;2023-03-31T02:45:40;13.02;;;7.55;;
56039;SDS011;43937;41.366;2.072;2023-03-31T02:48:51;17.80;;;8.15;;
56039;SDS011;43937;41.366;2.072;2023-03-31T03:08:01;16.85;;;7.03;;
56039;SDS011;43937;41.366;2.072;2023-03-31T03:10:43;15.10;;;7.82;;
56039;SDS011;43937;41.366;2.072;2023-03-31T03:21:34;14.95;;;7.40;;
56039;SDS011;43937;41.366;2.072;2023-03-31T03:23:59;11.88;;;7.00;;
56039;SDS011;43937;41.366;2.072;2023-03-31T03:28:11;9.88;;;6.43;;
56039;SDS011;43937;41.366;2.072;2023-03-31T03:30:37;14.88;;;7.68;;
56039;SDS011;43937;41.366;2.072;2023-03-31T03:35:10;12.63;;;8.43;;
56039;SDS011;43937;41.366;2.072;2023-03-31T03:37:35;14.18;;;8.55;;
56039;SDS011;43937;41.366;2.072;2023-03-31T03:42:03;16.67;;;7.85;;
56039;SDS011;43937;41.366;2.072;2023-03-31T03:45:30;15.32;;;8.88;;
56039;SDS011;43937;41.366;2.072;2023-03-31T03:48:24;14.63;;;8.77;;
56039;SDS011;43937;41.366;2.072;2023-03-31T03:52:18;20.23;;;7.63;;
56039;SDS011;43937;41.366;2.072;2023-03-31T03:54:44;18.65;;;7.65;;
56039;SDS011;43937;41.366;2.072;2023-03-31T03:57:09;15.45;;;7.90;;
56039;SDS011;43937;41.366;2.072;2023-03-31T04:02:55;12.95;;;6.00;;
56039;SDS011;43937;41.366;2.072;2023-03-31T04:05:20;19.85;;;9.02;;
56039;SDS011;43937;41.366;2.072;2023-03-31T04:07:46;7.72;;;5.50;;
56039;SDS011;43937;41.366;2.072;2023-03-31T04:14:01;21.90;;;7.47;;
56039;SDS011;43937;41.366;2.072;2023-03-31T04:17:09;8.50;;;6.57;;
56039;SDS011;43937;41.366;2.072;2023-03-31T04:24:50;7.03;;;4.78;;
56039;SDS011;43937;41.366;2.072;2023-03-31T04:29:19;7.18;;;4.78;;
56039;SDS011;43937;41.366;2.072;2023-03-31T04:31:46;12.95;;;6.65;;
56039;SDS011;43937;41.366;2.072;2023-03-31T04:39:18;6.72;;;5.13;;
56039;SDS011;43937;41.366;2.072;2023-03-31T04:41:55;11.23;;;6.93;;
56039;SDS011;43937;41.366;2.072;2023-03-31T04:46:16;9.32;;;6.00;;
56039;SDS011;43937;41.366;2.072;2023-03-31T04:51:28;14.68;;;7.43;;
56039;SDS011;43937;41.366;2.072;2023-03-31T04:57:20;14.57;;;6.60;;
56039;SDS011;43937;41.366;2.072;2023-03-31T04:59:45;13.48;;;6.80;;
56039;SDS011;43937;41.366;2.072;2023-03-31T05:08:06;12.48;;;5.72;;
56039;SDS011;43937;41.366;2.072;2023-03-31T05:12:23;8.50;;;6.13;;
56039;SDS011;43937;41.366;2.072;2023-03-31T05:16:39;8.93;;;5.47;;
56039;SDS011;43937;41.366;2.072;2023-03-31T05:19:29;8.30;;;5.47;;
56039;SDS011;43937;41.366;2.072;2023-03-31T05:25:32;9.50;;;5.18;;
56039;SDS011;43937;41.366;2.072;2023-03-31T05:30:21;7.10;;;5.10;;
56039;SDS011;43937;41.366;2.072;2023-03-31T05:34:43;9.07;;;5.15;;
56039;SDS011;43937;41.366;2.072;2023-03-31T05:44:41;9.98;;;7.28;;
56039;SDS011;43937;41.366;2.072;2023-03-31T05:47:06;18.58;;;7.20;;
56039;SDS011;43937;41.366;2.072;2023-03-31T05:51:08;12.15;;;7.68;;
56039;SDS011;43937;41.366;2.072;2023-03-31T05:53:34;17.95;;;9.82;;
56039;SDS011;43937;41.366;2.072;2023-03-31T06:06:07;10.10;;;7.25;;
56039;SDS011;43937;41.366;2.072;2023-03-31T06:09:07;14.68;;;7.28;;
56039;SDS011;43937;41.366;2.072;2023-03-31T06:11:33;12.95;;;7.43;;
56039;SDS011;43937;41.366;2.072;2023-03-31T06:16:58;15.65;;;8.73;;
56039;SDS011;43937;41.366;2.072;2023-03-31T06:20:32;12.35;;;6.50;;
56039;SDS011;43937;41.366;2.072;2023-03-31T06:28:47;11.00;;;6.80;;
56039;SDS011;43937;41.366;2.072;2023-03-31T06:31:48;16.85;;;8.30;;
56039;SDS011;43937;41.366;2.072;2023-03-31T06:39:51;11.43;;;7.97;;
56039;SDS011;43937;41.366;2.072;2023-03-31T06:43:15;16.75;;;7.88;;
56039;SDS011;43937;41.366;2.072;2023-03-31T06:50:04;10.88;;;6.15;;
56039;SDS011;43937;41.366;2.072;2023-03-31T06:52:30;16.73;;;6.07;;
56039;SDS011;43937;41.366;2.072;2023-03-31T06:56:43;7.22;;;5.15;;
56039;SDS011;43937;41.366;2.072;2023-03-31T07:03:34;15.88;;;6.00;;
56039;SDS011;43937;41.366;2.072;2023-03-31T07:06:00;10.35;;;6.05;;
56039;SDS011;43937;41.366;2.072;2023-03-31T07:14:42;12.25;;;6.40;;
56039;SDS011;43937;41.366;2.072;2023-03-31T07:17:07;10.15;;;5.72;;
56039;SDS011;43937;41.366;2.072;2023-03-31T07:19:33;8.23;;;5.40;;
56039;SDS011;43937;41.366;2.072;2023-03-31T07:22:01;25.02;;;6.15;;
56039;SDS011;43937;41.366;2.072;2023-03-31T07:28:44;9.45;;;5.25;;
56039;SDS011;43937;41.366;2.072;2023-03-31T07:32:38;7.22;;;5.07;;
56039;SDS011;43937;41.366;2.072;2023-03-31T07:44:36;4.50;;;2.50;;
56039;SDS011;43937;41.366;2.072;2023-03-31T07:48:14;4.88;;;2.65;;
56039;SDS011;43937;41.366;2.072;2023-03-31T07:50:39;5.22;;;2.05;;
56039;SDS011;43937;41.366;2.072;2023-03-31T08:10:36;1.65;;;0.90;;
56039;SDS011;43937;41.366;2.072;2023-03-31T08:13:20;15.40;;;1.50;;
56039;SDS011;43937;41.366;2.072;2023-03-31T08:20:52;3.33;;;1.25;;
56039;SDS011;43937;41.366;2.072;2023-03-31T08:25:26;4.57;;;0.98;;
56039;SDS011;43937;41.366;2.072;2023-03-31T08:31:56;7.78;;;1.90;;
56039;SDS011;43937;41.366;2.072;2023-03-31T08:36:26;3.90;;;1.13;;
56039;SDS011;43937;41.366;2.072;2023-03-31T08:39:39;1.75;;;0.75;;
56039;SDS011;43937;41.366;2.072;2023-03-31T08:42:44;2.63;;;1.20;;
56039;SDS011;43937;41.366;2.072;2023-03-31T08:45:20;3.15;;;1.02;;
56039;SDS011;43937;41.366;2.072;2023-03-31T08:48:33;3.03;;;1.30;;
56039;SDS011;43937;41.366;2.072;2023-03-31T08:53:19;1.15;;;0.90;;
56039;SDS011;43937;41.366;2.072;2023-03-31T08:56:39;6.53;;;1.30;;
56039;SDS011;43937;41.366;2.072;2023-03-31T09:01:56;4.70;;;0.82;;
56039;SDS011;43937;41.366;2.072;2023-03-31T09:11:47;5.55;;;0.98;;
56039;SDS011;43937;41.366;2.072;2023-03-31T09:29:41;1.05;;;0.68;;
56039;SDS011;43937;41.366;2.072;2023-03-31T09:38:36;0.65;;;0.50;;
56039;SDS011;43937;41.366;2.072;2023-03-31T09:44:57;1.00;;;0.50;;
56039;SDS011;43937;41.366;2.072;2023-03-31T09:53:01;2.60;;;0.90;;
56039;SDS011;43937;41.366;2.072;2023-03-31T09:55:39;2.45;;;0.98;;
56039;SDS011;43937;41.366;2.072;2023-03-31T10:04:05;1.65;;;0.75;;
56039;SDS011;43937;41.366;2.072;2023-03-31T10:11:12;5.78;;;0.60;;
56039;SDS011;43937;41.366;2.072;2023-03-31T10:17:42;1.08;;;0.47;;
56039;SDS011;43937;41.366;2.072;2023-03-31T10:21:34;1.98;;;0.80;;
56039;SDS011;43937;41.366;2.072;2023-03-31T10:24:00;17.42;;;0.90;;
56039;SDS011;43937;41.366;2.072;2023-03-31T10:27:21;3.92;;;0.30;;
56039;SDS011;43937;41.366;2.072;2023-03-31T10:31:53;2.22;;;0.57;;
56039;SDS011;43937;41.366;2.072;2023-03-31T10:35:26;2.55;;;0.82;;
56039;SDS011;43937;41.366;2.072;2023-03-31T10:41:48;4.68;;;0.93;;
56039;SDS011;43937;41.366;2.072;2023-03-31T10:49:15;0.63;;;0.30;;
56039;SDS011;43937;41.366;2.072;2023-03-31T10:52:21;3.60;;;0.40;;
56039;SDS011;43937;41.366;2.072;2023-03-31T10:54:50;3.10;;;0.68;;
56039;SDS011;43937;41.366;2.072;2023-03-31T11:08:51;4.28;;;0.88;;
56039;SDS011;43937;41.366;2.072;2023-03-31T11:22:36;1.92;;;0.73;;
56039;SDS011;43937;41.366;2.072;2023-03-31T11:30:09;1.30;;;0.73;;
56039;SDS011;43937;41.366;2.072;2023-03-31T11:34:29;3.70;;;1.00;;
56039;SDS011;43937;41.366;2.072;2023-03-31T11:42:36;1.42;;;0.52;;
56039;SDS011;43937;41.366;2.072;2023-03-31T11:45:15;3.40;;;0.75;;
56039;SDS011;43937;41.366;2.072;2023-03-31T11:48:49;0.57;;;0.43;;
56039;SDS011;43937;41.366;2.072;2023-03-31T11:53:19;4.32;;;0.95;;
56039;SDS011;43937;41.366;2.072;2023-03-31T11:57:02;3.00;;;0.60;;
56039;SDS011;43937;41.366;2.072;2023-03-31T12:06:41;6.63;;;2.58;;
56039;SDS011;43937;41.366;2.072;2023-03-31T12:10:37;10.65;;;2.65;;
56039;SDS011;43937;41.366;2.072;2023-03-31T12:23:15;9.85;;;2.92;;
56039;SDS011;43937;41.366;2.072;2023-03-31T12:32:27;4.20;;;2.13;;
56039;SDS011;43937;41.366;2.072;2023-03-31T12:35:04;12.40;;;2.33;;
56039;SDS011;43937;41.366;2.072;2023-03-31T12:39:22;9.02;;;2.80;;
56039;SDS011;43937;41.366;2.072;2023-03-31T13:00:25;6.75;;;2.92;;
56039;SDS011;43937;41.366;2.072;2023-03-31T13:03:44;6.20;;;2.97;;
56039;SDS011;43937;41.366;2.072;2023-03-31T13:13:32;3.78;;;2.45;;
56039;SDS011;43937;41.366;2.072;2023-03-31T13:17:30;8.48;;;2.75;;
56039;SDS011;43937;41.366;2.072;2023-03-31T13:23:28;8.43;;;2.67;;
56039;SDS011;43937;41.366;2.072;2023-03-31T13:32:32;8.70;;;3.72;;
56039;SDS011;43937;41.366;2.072;2023-03-31T13:35:19;10.23;;;2.58;;
56039;SDS011;43937;41.366;2.072;2023-03-31T13:43:49;3.63;;;2.20;;
56039;SDS011;43937;41.366;2.072;2023-03-31T13:46:41;4.90;;;2.58;;
56039;SDS011;43937;41.366;2.072;2023-03-31T13:58:13;5.97;;;2.58;;
56039;SDS011;43937;41.366;2.072;2023-03-31T14:14:23;11.85;;;2.92;;
56039;SDS011;43937;41.366;2.072;2023-03-31T14:30:47;6.55;;;2.58;;
56039;SDS011;43937;41.366;2.072;2023-03-31T14:33:44;7.28;;;2.65;;
56039;SDS011;43937;41.366;2.072;2023-03-31T14:39:43;13.70;;;2.85;;
56039;SDS011;43937;41.366;2.072;2023-03-31T14:45:22;8.35;;;2.83;;
56039;SDS011;43937;41.366;2.072;2023-03-31T14:49:25;7.03;;;2.78;;
56039;SDS011;43937;41.366;2.072;2023-03-31T14:59:50;10.85;;;2.40;;
56039;SDS011;43937;41.366;2.072;2023-03-31T15:02:32;7.53;;;2.47;;
56039;SDS011;43937;41.366;2.072;2023-03-31T15:07:27;3.95;;;2.25;;
56039;SDS011;43937;41.366;2.072;2023-03-31T15:12:26;10.70;;;2.50;;
56039;SDS011;43937;41.366;2.072;2023-03-31T15:15:39;19.33;;;2.10;;
56039;SDS011;43937;41.366;2.072;2023-03-31T15:18:19;5.68;;;2.13;;
56039;SDS011;43937;41.366;2.072;2023-03-31T15:20:44;4.93;;;1.63;;
56039;SDS011;43937;41.366;2.072;2023-03-31T15:24:30;29.00;;;2.28;;
56039;SDS011;43937;41.366;2.072;2023-03-31T15:28:57;22.95;;;2.63;;
56039;SDS011;43937;41.366;2.072;2023-03-31T15:31:41;9.13;;;2.45;;
56039;SDS011;43937;41.366;2.072;2023-03-31T15:39:13;7.15;;;2.38;;
56039;SDS011;43937;41.366;2.072;2023-03-31T15:43:17;6.32;;;2.08;;
56039;SDS011;43937;41.366;2.072;2023-03-31T15:45:54;8.50;;;2.33;;
56039;SDS011;43937;41.366;2.072;2023-03-31T15:48:29;16.17;;;2.03;;
56039;SDS011;43937;41.366;2.072;2023-03-31T15:52:36;5.53;;;2.63;;
56039;SDS011;43937;41.366;2.072;2023-03-31T15:57:13;6.80;;;2.00;;
56039;SDS011;43937;41.366;2.072;2023-03-31T16:01:41;4.82;;;1.90;;
56039;SDS011;43937;41.366;2.072;2023-03-31T16:04:10;4.68;;;2.17;;
56039;SDS011;43937;41.366;2.072;2023-03-31T16:08:13;5.20;;;2.00;;
56039;SDS011;43937;41.366;2.072;2023-03-31T16:10:47;24.20;;;2.45;;
56039;SDS011;43937;41.366;2.072;2023-03-31T16:13:19;7.10;;;1.92;;
56039;SDS011;43937;41.366;2.072;2023-03-31T16:15:47;4.93;;;2.35;;
56039;SDS011;43937;41.366;2.072;2023-03-31T16:22:29;4.47;;;2.20;;
56039;SDS011;43937;41.366;2.072;2023-03-31T16:25:01;3.20;;;2.05;;
56039;SDS011;43937;41.366;2.072;2023-03-31T16:30:08;9.20;;;2.58;;
56039;SDS011;43937;41.366;2.072;2023-03-31T16:34:50;7.50;;;2.20;;
56039;SDS011;43937;41.366;2.072;2023-03-31T16:37:45;8.70;;;2.17;;
56039;SDS011;43937;41.366;2.072;2023-03-31T16:42:10;9.93;;;2.50;;
56039;SDS011;43937;41.366;2.072;2023-03-31T16:44:36;9.45;;;2.80;;
56039;SDS011;43937;41.366;2.072;2023-03-31T16:47:01;14.88;;;3.38;;
56039;SDS011;43937;41.366;2.072;2023-03-31T16:49:27;4.65;;;1.90;;
56039;SDS011;43937;41.366;2.072;2023-03-31T16:54:51;15.45;;;3.70;;
56039;SDS011;43937;41.366;2.072;2023-03-31T16:57:17;4.70;;;2.95;;
56039;SDS011;43937;41.366;2.072;2023-03-31T17:01:55;8.00;;;2.13;;
56039;SDS011;43937;41.366;2.072;2023-03-31T17:04:21;4.93;;;2.40;;
56039;SDS011;43937;41.366;2.072;2023-03-31T17:06:47;11.02;;;3.28;;
56039;SDS011;43937;41.366;2.072;2023-03-31T17:10:52;12.48;;;2.63;;
56039;SDS011;43937;41.366;2.072;2023-03-31T17:13:25;8.93;;;3.00;;
56039;SDS011;43937;41.366;2.072;2023-03-31T17:15:51;8.13;;;2.97;;
56039;SDS011;43937;41.366;2.072;2023-03-31T17:18:17;6.70;;;2.72;;
56039;SDS011;43937;41.366;2.072;2023-03-31T17:20:43;7.50;;;3.00;;
56039;SDS011;43937;41.366;2.072;2023-03-31T17:23:09;15.60;;;3.30;;
56039;SDS011;43937;41.366;2.072;2023-03-31T17:25:35;15.70;;;3.03;;
56039;SDS011;43937;41.366;2.072;2023-03-31T17:30:53;4.13;;;2.20;;
56039;SDS011;43937;41.366;2.072;2023-03-31T17:33:18;4.47;;;1.92;;
56039;SDS011;43937;41.366;2.072;2023-03-31T17:35:45;5.97;;;2.60;;
56039;SDS011;43937;41.366;2.072;2023-03-31T17:41:50;5.50;;;2.35;;
56039;SDS011;43937;41.366;2.072;2023-03-31T17:51:49;4.82;;;2.50;;
56039;SDS011;43937;41.366;2.072;2023-03-31T17:55:39;13.18;;;1.92;;
56039;SDS011;43937;41.366;2.072;2023-03-31T17:59:42;14.50;;;2.85;;
56039;SDS011;43937;41.366;2.072;2023-03-31T18:03:30;6.72;;;3.25;;
56039;SDS011;43937;41.366;2.072;2023-03-31T18:12:14;6.38;;;2.58;;
56039;SDS011;43937;41.366;2.072;2023-03-31T18:15:37;4.70;;;2.03;;
56039;SDS011;43937;41.366;2.072;2023-03-31T18:18:03;3.78;;;2.20;;
56039;SDS011;43937;41.366;2.072;2023-03-31T18:20:30;7.07;;;2.13;;
56039;SDS011;43937;41.366;2.072;2023-03-31T18:22:56;14.68;;;1.98;;
56039;SDS011;43937;41.366;2.072;2023-03-31T18:27:05;5.07;;;1.90;;
56039;SDS011;43937;41.366;2.072;2023-03-31T18:34:46;7.80;;;2.65;;
56039;SDS011;43937;41.366;2.072;2023-03-31T18:39:20;7.00;;;2.58;;
56039;SDS011;43937;41.366;2.072;2023-03-31T18:41:46;4.05;;;1.77;;
56039;SDS011;43937;41.366;2.072;2023-03-31T18:47:14;3.80;;;2.13;;
56039;SDS011;43937;41.366;2.072;2023-03-31T18:50:16;7.75;;;2.55;;
56039;SDS011;43937;41.366;2.072;2023-03-31T18:54:30;4.75;;;2.33;;
56039;SDS011;43937;41.366;2.072;2023-03-31T18:57:17;12.23;;;2.45;;
56039;SDS011;43937;41.366;2.072;2023-03-31T18:59:43;7.10;;;2.35;;
56039;SDS011;43937;41.366;2.072;2023-03-31T19:03:16;11.80;;;1.98;;
56039;SDS011;43937;41.366;2.072;2023-03-31T19:07:10;8.38;;;2.13;;
56039;SDS011;43937;41.366;2.072;2023-03-31T19:14:45;6.18;;;2.08;;
56039;SDS011;43937;41.366;2.072;2023-03-31T19:17:10;19.40;;;2.15;;
56039;SDS011;43937;41.366;2.072;2023-03-31T19:28:28;7.97;;;2.33;;
56039;SDS011;43937;41.366;2.072;2023-03-31T19:32:18;3.15;;;1.80;;
56039;SDS011;43937;41.366;2.072;2023-03-31T19:35:50;15.43;;;3.15;;
56039;SDS011;43937;41.366;2.072;2023-03-31T19:38:46;4.25;;;1.92;;
56039;SDS011;43937;41.366;2.072;2023-03-31T19:41:12;6.70;;;2.70;;
56039;SDS011;43937;41.366;2.072;2023-03-31T19:43:38;1.80;;;1.65;;
56039;SDS011;43937;41.366;2.072;2023-03-31T19:48:53;4.57;;;1.85;;
56039;SDS011;43937;41.366;2.072;2023-03-31T19:51:52;8.13;;;1.95;;
56039;SDS011;43937;41.366;2.072;2023-03-31T19:56:06;1.85;;;1.48;;
56039;SDS011;43937;41.366;2.072;2023-03-31T19:58:34;4.90;;;2.10;;
56039;SDS011;43937;41.366;2.072;2023-03-31T20:01:02;14.73;;;2.28;;
56039;SDS011;43937;41.366;2.072;2023-03-31T20:11:02;7.28;;;2.45;;
56039;SDS011;43937;41.366;2.072;2023-03-31T20:13:30;3.83;;;1.58;;
56039;SDS011;43937;41.366;2.072;2023-03-31T20:16:00;10.20;;;2.28;;
56039;SDS011;43937;41.366;2.072;2023-03-31T20:18:28;12.68;;;2.28;;
56039;SDS011;43937;41.366;2.072;2023-03-31T20:21:01;5.30;;;2.08;;
56039;SDS011;43937;41.366;2.072;2023-03-31T20:23:29;6.85;;;2.00;;
56039;SDS011;43937;41.366;2.072;2023-03-31T20:25:55;5.70;;;1.85;;
56039;SDS011;43937;41.366;2.072;2023-03-31T20:29:41;6.18;;;1.80;;
56039;SDS011;43937;41.366;2.072;2023-03-31T20:32:07;4.65;;;2.58;;
56039;SDS011;43937;41.366;2.072;2023-03-31T20:34:33;3.42;;;1.92;;
56039;SDS011;43937;41.366;2.072;2023-03-31T20:37:36;3.03;;;1.67;;
56039;SDS011;43937;41.366;2.072;2023-03-31T20:42:30;9.55;;;2.13;;
56039;SDS011;43937;41.366;2.072;2023-03-31T20:47:09;4.47;;;1.80;;
56039;SDS011;43937;41.366;2.072;2023-03-31T20:50:31;3.45;;;1.98;;
56039;SDS011;43937;41.366;2.072;2023-03-31T20:53:51;9.90;;;2.55;;
56039;SDS011;43937;41.366;2.072;2023-03-31T20:58:50;4.07;;;2.25;;
56039;SDS011;43937;41.366;2.072;2023-03-31T21:03:38;8.25;;;2.17;;
56039;SDS011;43937;41.366;2.072;2023-03-31T21:06:05;4.18;;;2.03;;
56039;SDS011;43937;41.366;2.072;2023-03-31T21:08:32;5.93;;;1.98;;
56039;SDS011;43937;41.366;2.072;2023-03-31T21:12:19;4.32;;;1.92;;
56039;SDS011;43937;41.366;2.072;2023-03-31T21:14:44;4.93;;;2.30;;
56039;SDS011;43937;41.366;2.072;2023-03-31T21:26:46;7.05;;;1.88;;
56039;SDS011;43937;41.366;2.072;2023-03-31T21:29:12;3.90;;;1.92;;
56039;SDS011;43937;41.366;2.072;2023-03-31T21:32:13;6.13;;;2.15;;
56039;SDS011;43937;41.366;2.072;2023-03-31T21:34:39;3.20;;;1.98;;
56039;SDS011;43937;41.366;2.072;2023-03-31T21:37:05;5.07;;;1.92;;
56039;SDS011;43937;41.366;2.072;2023-03-31T21:40:23;3.53;;;2.15;;
56039;SDS011;43937;41.366;2.072;2023-03-31T21:43:08;7.85;;;2.90;;
56039;SDS011;43937;41.366;2.072;2023-03-31T21:45:51;5.72;;;3.42;;
56039;SDS011;43937;41.366;2.072;2023-03-31T21:48:22;4.25;;;2.47;;
56039;SDS011;43937;41.366;2.072;2023-03-31T21:52:38;3.28;;;2.15;;
56039;SDS011;43937;41.366;2.072;2023-03-31T21:55:03;13.15;;;2.13;;
56039;SDS011;43937;41.366;2.072;2023-03-31T21:57:29;5.25;;;2.10;;
56039;SDS011;43937;41.366;2.072;2023-03-31T22:01:41;5.60;;;2.13;;
56039;SDS011;43937;41.366;2.072;2023-03-31T22:04:29;2.83;;;1.40;;
56039;SDS011;43937;41.366;2.072;2023-03-31T22:06:55;17.00;;;3.05;;
56039;SDS011;43937;41.366;2.072;2023-03-31T22:09:20;3.85;;;1.92;;
56039;SDS011;43937;41.366;2.072;2023-03-31T22:11:46;11.68;;;1.90;;
56039;SDS011;43937;41.366;2.072;2023-03-31T22:14:11;3.80;;;2.45;;
56039;SDS011;43937;41.366;2.072;2023-03-31T22:16:37;6.30;;;2.70;;
56039;SDS011;43937;41.366;2.072;2023-03-31T22:24:13;4.35;;;2.40;;
56039;SDS011;43937;41.366;2.072;2023-03-31T22:26:38;4.20;;;2.22;;
56039;SDS011;43937;41.366;2.072;2023-03-31T22:29:04;6.00;;;2.60;;
56039;SDS011;43937;41.366;2.072;2023-03-31T22:32:19;5.88;;;2.55;;
56039;SDS011;43937;41.366;2.072;2023-03-31T22:39:37;8.85;;;3.78;;
56039;SDS011;43937;41.366;2.072;2023-03-31T22:47:50;9.93;;;2.55;;
56039;SDS011;43937;41.366;2.072;2023-03-31T22:52:09;12.85;;;3.35;;
56039;SDS011;43937;41.366;2.072;2023-03-31T22:58:21;8.60;;;3.45;;
56039;SDS011;43937;41.366;2.072;2023-03-31T23:00:53;8.82;;;3.70;;
56039;SDS011;43937;41.366;2.072;2023-03-31T23:06:38;9.00;;;3.05;;
56039;SDS011;43937;41.366;2.072;2023-03-31T23:09:41;6.28;;;2.85;;
56039;SDS011;43937;41.366;2.072;2023-03-31T23:22:01;3.97;;;2.40;;
56039;SDS011;43937;41.366;2.072;2023-03-31T23:34:18;4.22;;;2.35;;
56039;SDS011;43937;41.366;2.072;2023-03-31T23:38:38;4.78;;;2.35;;
56039;SDS011;43937;41.366;2.072;2023-03-31T23:41:04;8.20;;;3.75;;
56039;SDS011;43937;41.366;2.072;2023-03-31T23:45:00;5.50;;;3.08;;
56039;SDS011;43937;41.366;2.072;2023-03-31T23:48:29;9.45;;;2.75;;
56039;SDS011;43937;41.366;2.072;2023-03-31T23:52:34;5.07;;;2.40;;
56039;SDS011;43937;41.366;2.072;2023-03-31T23:55:00;7.43;;;3.75;;
